createdAt,value
2022-12-03T00:00:12.118Z,0.50
2022-12-03T00:01:15.248Z,0.40
2022-12-03T00:02:17.625Z,0.40
2022-12-03T00:03:20.296Z,0.50
2022-12-03T00:04:22.879Z,0.50
2022-12-03T00:05:25.162Z,0.50
2022-12-03T00:06:32.940Z,0.50
2022-12-03T00:07:36.760Z,0.40
2022-12-03T00:08:39.000Z,0.40
2022-12-03T00:09:41.240Z,0.40
2022-12-03T00:10:43.504Z,0.40
2022-12-03T00:11:45.734Z,0.50
2022-12-03T00:12:48.000Z,0.50
2022-12-03T00:13:50.151Z,0.50
2022-12-03T00:14:52.677Z,0.50
2022-12-03T00:15:55.066Z,0.50
2022-12-03T00:16:57.475Z,0.50
2022-12-03T00:17:59.747Z,0.50
2022-12-03T00:19:02.640Z,0.40
2022-12-03T00:20:07.856Z,0.40
2022-12-03T00:21:10.178Z,0.50
2022-12-03T00:22:12.936Z,0.40
2022-12-03T00:23:15.283Z,0.40
2022-12-03T00:24:17.531Z,0.40
2022-12-03T00:25:19.875Z,0.40
2022-12-03T00:26:22.063Z,0.40
2022-12-03T00:27:24.541Z,0.40
2022-12-03T00:28:26.865Z,0.40
2022-12-03T00:29:29.118Z,0.40
2022-12-03T00:30:31.369Z,0.40
2022-12-03T00:31:33.735Z,0.40
2022-12-03T00:32:36.053Z,0.40
2022-12-03T00:33:38.283Z,0.40
2022-12-03T00:34:40.556Z,0.40
2022-12-03T00:35:42.828Z,0.40
2022-12-03T00:36:45.087Z,0.40
2022-12-03T00:37:47.447Z,0.40
2022-12-03T00:38:49.689Z,0.40
2022-12-03T00:39:51.985Z,0.50
2022-12-03T00:40:54.216Z,0.40
2022-12-03T00:41:57.007Z,0.40
2022-12-03T00:42:59.329Z,0.40
2022-12-03T00:44:01.609Z,0.50
2022-12-03T00:45:04.257Z,0.50
2022-12-03T00:46:06.608Z,0.50
2022-12-03T00:47:09.886Z,0.50
2022-12-03T00:48:12.181Z,0.50
2022-12-03T00:49:14.515Z,0.50
2022-12-03T00:50:16.901Z,0.50
2022-12-03T00:51:19.487Z,0.40
2022-12-03T00:52:21.835Z,0.40
2022-12-03T00:53:24.299Z,0.40
2022-12-03T00:54:31.596Z,0.40
2022-12-03T00:55:34.241Z,0.40
2022-12-03T00:56:36.443Z,0.40
2022-12-03T00:57:38.679Z,0.50
2022-12-03T00:58:40.876Z,0.50
2022-12-03T00:59:43.191Z,0.50
2022-12-03T01:00:45.396Z,0.50
2022-12-03T01:01:47.800Z,0.50
2022-12-03T01:02:50.859Z,0.50
2022-12-03T01:03:53.004Z,0.50
2022-12-03T01:04:56.638Z,0.50
2022-12-03T01:05:59.130Z,0.60
2022-12-03T01:07:01.762Z,0.50
2022-12-03T01:08:04.230Z,0.50
2022-12-03T01:09:06.577Z,0.50
2022-12-03T01:10:09.127Z,0.50
2022-12-03T01:11:31.359Z,0.50
2022-12-03T01:12:33.603Z,0.50
2022-12-03T01:13:35.804Z,0.50
2022-12-03T01:14:38.149Z,0.50
2022-12-03T01:15:40.453Z,0.50
2022-12-03T01:16:43.052Z,0.50
2022-12-03T01:17:45.275Z,0.50
2022-12-03T01:18:47.528Z,0.50
2022-12-03T01:19:52.488Z,0.50
2022-12-03T01:20:54.728Z,0.50
2022-12-03T01:21:57.041Z,0.50
2022-12-03T01:22:59.286Z,0.50
2022-12-03T01:24:01.542Z,0.50
2022-12-03T01:25:04.464Z,0.50
2022-12-03T01:26:06.776Z,0.50
2022-12-03T01:27:09.092Z,0.50
2022-12-03T01:28:11.691Z,0.50
2022-12-03T01:29:14.620Z,0.50
2022-12-03T01:30:16.916Z,0.50
2022-12-03T01:31:38.104Z,0.50
2022-12-03T01:32:40.446Z,0.50
2022-12-03T01:33:42.651Z,0.50
2022-12-03T01:34:53.035Z,0.50
2022-12-03T01:35:55.643Z,0.50
2022-12-03T01:36:57.955Z,0.50
2022-12-03T01:38:00.212Z,0.60
2022-12-03T01:39:03.294Z,0.60
2022-12-03T01:40:07.652Z,0.60
2022-12-03T01:41:11.829Z,0.60
2022-12-03T01:42:21.196Z,0.50
2022-12-03T01:43:23.431Z,0.60
2022-12-03T01:44:36.673Z,0.60
2022-12-03T01:45:38.943Z,0.50
2022-12-03T01:46:42.649Z,0.50
2022-12-03T01:47:45.041Z,0.50
2022-12-03T01:48:49.049Z,0.50
2022-12-03T01:49:55.192Z,0.50
2022-12-03T01:50:57.505Z,0.50
2022-12-03T01:52:01.245Z,0.50
2022-12-03T01:53:04.989Z,0.40
2022-12-03T01:54:16.151Z,0.40
2022-12-03T01:55:21.135Z,0.40
2022-12-03T01:56:23.352Z,0.40
2022-12-03T01:57:29.740Z,0.40
2022-12-03T01:58:32.250Z,0.30
2022-12-03T01:59:37.331Z,0.30
2022-12-03T02:00:40.440Z,0.30
2022-12-03T02:01:42.967Z,0.40
2022-12-03T02:02:46.662Z,0.30
2022-12-03T02:03:49.020Z,0.30
2022-12-03T02:04:53.358Z,0.40
2022-12-03T02:05:56.938Z,0.40
2022-12-03T02:07:27.929Z,0.40
2022-12-03T02:08:35.848Z,0.40
2022-12-03T02:09:38.060Z,0.40
2022-12-03T02:10:40.740Z,0.40
2022-12-03T02:11:46.335Z,0.40
2022-12-03T02:13:07.187Z,0.40
2022-12-03T02:14:13.845Z,0.40
2022-12-03T02:15:16.658Z,0.40
2022-12-03T02:16:19.125Z,0.40
2022-12-03T02:17:21.520Z,0.50
2022-12-03T02:18:23.849Z,0.50
2022-12-03T02:19:29.453Z,0.50
2022-12-03T02:20:35.831Z,0.50
2022-12-03T02:21:49.120Z,0.50
2022-12-03T02:23:06.632Z,0.50
2022-12-03T02:24:15.180Z,0.50
2022-12-03T02:25:27.566Z,0.50
2022-12-03T02:26:29.936Z,0.50
2022-12-03T02:27:32.249Z,0.40
2022-12-03T02:28:34.810Z,0.40
2022-12-03T02:29:37.265Z,0.40
2022-12-03T02:30:39.639Z,0.40
2022-12-03T02:31:43.337Z,0.40
2022-12-03T02:32:45.844Z,0.40
2022-12-03T02:33:48.172Z,0.40
2022-12-03T02:34:52.144Z,0.40
2022-12-03T02:35:57.945Z,0.40
2022-12-03T02:37:05.135Z,0.40
2022-12-03T02:38:21.134Z,0.40
2022-12-03T02:39:23.476Z,0.40
2022-12-03T02:40:30.856Z,0.40
2022-12-03T02:41:51.533Z,0.40
2022-12-03T02:42:58.678Z,0.40
2022-12-03T02:44:01.350Z,0.40
2022-12-03T02:45:11.700Z,0.40
2022-12-03T02:46:13.963Z,0.40
2022-12-03T02:47:16.487Z,0.40
2022-12-03T02:48:24.081Z,0.40
2022-12-03T02:49:26.429Z,0.40
2022-12-03T02:50:35.800Z,0.40
2022-12-03T02:51:38.050Z,0.40
2022-12-03T02:52:42.044Z,0.40
2022-12-03T02:53:48.708Z,0.40
2022-12-03T02:54:52.177Z,0.40
2022-12-03T02:55:57.407Z,0.40
2022-12-03T02:56:59.891Z,0.40
2022-12-03T02:58:04.050Z,0.40
2022-12-03T02:59:06.476Z,0.40
2022-12-03T03:00:10.904Z,0.40
2022-12-03T03:01:15.465Z,0.40
2022-12-03T03:02:18.072Z,0.40
2022-12-03T03:03:22.226Z,0.40
2022-12-03T03:04:24.955Z,0.40
2022-12-03T03:05:27.396Z,0.40
2022-12-03T03:06:29.675Z,0.40
2022-12-03T03:07:31.989Z,0.40
2022-12-03T03:08:35.257Z,0.40
2022-12-03T03:09:37.714Z,0.40
2022-12-03T03:10:41.377Z,0.40
2022-12-03T03:11:43.649Z,0.50
2022-12-03T03:12:46.455Z,0.50
2022-12-03T03:13:48.797Z,0.50
2022-12-03T03:14:51.206Z,0.50
2022-12-03T03:15:54.798Z,0.50
2022-12-03T03:16:57.936Z,0.50
2022-12-03T03:18:00.253Z,0.50
2022-12-03T03:19:02.777Z,0.50
2022-12-03T03:20:06.956Z,0.50
2022-12-03T03:21:09.638Z,0.50
2022-12-03T03:22:12.389Z,0.50
2022-12-03T03:23:21.482Z,0.50
2022-12-03T03:24:24.331Z,0.40
2022-12-03T03:25:26.614Z,0.50
2022-12-03T03:26:29.912Z,0.40
2022-12-03T03:27:32.903Z,0.50
2022-12-03T03:28:38.693Z,0.40
2022-12-03T03:29:40.943Z,0.40
2022-12-03T03:30:46.561Z,0.40
2022-12-03T03:31:49.543Z,0.40
2022-12-03T03:32:51.860Z,0.40
2022-12-03T03:33:54.261Z,0.40
2022-12-03T03:34:57.215Z,0.50
2022-12-03T03:36:00.562Z,0.50
2022-12-03T03:37:02.808Z,0.50
2022-12-03T03:38:05.642Z,0.50
2022-12-03T03:39:08.152Z,0.50
2022-12-03T03:40:10.953Z,0.50
2022-12-03T03:41:14.452Z,0.50
2022-12-03T03:42:16.883Z,0.50
2022-12-03T03:43:22.048Z,0.50
2022-12-03T03:44:24.371Z,0.50
2022-12-03T03:45:29.285Z,0.40
2022-12-03T03:46:33.593Z,0.50
2022-12-03T03:47:36.082Z,0.50
2022-12-03T03:48:38.694Z,0.50
2022-12-03T03:49:41.730Z,0.50
2022-12-03T03:50:45.029Z,0.50
2022-12-03T03:51:47.652Z,0.50
2022-12-03T03:52:49.926Z,0.50
2022-12-03T03:53:52.579Z,0.40
2022-12-03T03:54:56.053Z,0.40
2022-12-03T03:55:58.411Z,0.40
2022-12-03T03:57:00.692Z,0.40
2022-12-03T03:58:03.064Z,0.40
2022-12-03T03:59:05.468Z,0.40
2022-12-03T04:00:08.922Z,0.40
2022-12-03T04:01:13.224Z,0.40
2022-12-03T04:02:19.676Z,0.40
2022-12-03T04:03:22.075Z,0.40
2022-12-03T04:04:29.261Z,0.40
2022-12-03T04:05:31.778Z,0.40
2022-12-03T04:06:33.991Z,0.40
2022-12-03T04:07:36.264Z,0.40
2022-12-03T04:08:38.513Z,0.40
2022-12-03T04:09:40.825Z,0.30
2022-12-03T04:11:01.547Z,0.30
2022-12-03T04:12:22.393Z,0.40
2022-12-03T04:13:24.601Z,0.40
2022-12-03T04:14:26.845Z,0.40
2022-12-03T04:15:29.253Z,0.40
2022-12-03T04:16:31.673Z,0.40
2022-12-03T04:17:33.955Z,0.40
2022-12-03T04:18:45.084Z,0.40
2022-12-03T04:19:47.317Z,0.40
2022-12-03T04:20:49.545Z,0.40
2022-12-03T04:22:10.468Z,0.40
2022-12-03T04:23:12.699Z,0.40
2022-12-03T04:24:14.887Z,0.40
2022-12-03T04:25:35.656Z,0.40
2022-12-03T04:26:56.547Z,0.40
2022-12-03T04:28:17.291Z,0.60
2022-12-03T04:29:21.648Z,0.50
2022-12-03T04:30:23.955Z,0.50
2022-12-03T04:31:44.607Z,0.40
2022-12-03T04:33:05.309Z,0.40
2022-12-03T04:34:26.820Z,0.40
2022-12-03T04:35:44.304Z,0.40
2022-12-03T04:36:47.147Z,0.40
2022-12-03T04:37:49.378Z,0.40
2022-12-03T04:38:51.705Z,0.40
2022-12-03T04:39:54.057Z,0.40
2022-12-03T04:41:04.055Z,0.40
2022-12-03T04:42:06.507Z,0.40
2022-12-03T04:43:08.766Z,0.40
2022-12-03T04:44:30.027Z,0.30
2022-12-03T04:45:32.384Z,0.30
2022-12-03T04:46:34.846Z,0.30
2022-12-03T04:47:40.050Z,0.30
2022-12-03T04:48:42.446Z,0.30
2022-12-03T04:49:49.715Z,0.30
2022-12-03T04:50:52.099Z,0.30
2022-12-03T04:51:54.325Z,0.30
2022-12-03T04:52:56.892Z,0.30
2022-12-03T04:53:59.167Z,0.30
2022-12-03T04:55:01.362Z,0.30
2022-12-03T04:56:03.605Z,0.30
2022-12-03T04:57:06.813Z,0.30
2022-12-03T04:58:09.588Z,0.30
2022-12-03T04:59:16.021Z,0.30
2022-12-03T05:00:19.161Z,0.30
2022-12-03T05:01:21.522Z,0.30
2022-12-03T05:02:23.947Z,0.30
2022-12-03T05:03:26.180Z,0.30
2022-12-03T05:04:28.695Z,0.30
2022-12-03T05:05:31.112Z,0.30
2022-12-03T05:06:33.315Z,0.30
2022-12-03T05:07:35.574Z,0.30
2022-12-03T05:08:37.881Z,0.30
2022-12-03T05:09:40.124Z,0.30
2022-12-03T05:10:42.309Z,0.30
2022-12-03T05:11:44.846Z,0.30
2022-12-03T05:12:47.083Z,0.30
2022-12-03T05:13:50.076Z,0.30
2022-12-03T05:14:52.746Z,0.30
2022-12-03T05:15:55.157Z,0.30
2022-12-03T05:16:57.444Z,0.30
2022-12-03T05:18:00.287Z,0.30
2022-12-03T05:19:03.288Z,0.30
2022-12-03T05:20:24.926Z,0.30
2022-12-03T05:21:27.234Z,0.30
2022-12-03T05:22:29.431Z,0.30
2022-12-03T05:23:31.730Z,0.30
2022-12-03T05:24:33.918Z,0.20
2022-12-03T05:25:36.442Z,0.20
2022-12-03T05:26:38.702Z,0.20
2022-12-03T05:27:40.924Z,0.20
2022-12-03T05:28:43.133Z,0.20
2022-12-03T05:29:45.374Z,0.20
2022-12-03T05:30:47.776Z,0.20
2022-12-03T05:31:50.122Z,0.20
2022-12-03T05:32:52.379Z,0.20
2022-12-03T05:33:55.182Z,0.10
2022-12-03T05:34:57.462Z,0.10
2022-12-03T05:36:00.175Z,0.10
2022-12-03T05:37:02.353Z,0.20
2022-12-03T05:38:04.602Z,0.20
2022-12-03T05:39:06.808Z,0.20
2022-12-03T05:40:10.069Z,0.20
2022-12-03T05:41:31.018Z,0.20
2022-12-03T05:42:51.754Z,0.20
2022-12-03T05:43:55.066Z,0.20
2022-12-03T05:44:57.319Z,0.20
2022-12-03T05:45:59.580Z,0.20
2022-12-03T05:47:01.790Z,0.20
2022-12-03T05:48:06.223Z,0.20
2022-12-03T05:49:08.498Z,0.20
2022-12-03T05:50:11.024Z,0.20
2022-12-03T05:51:13.295Z,0.20
2022-12-03T05:52:15.556Z,0.20
2022-12-03T05:53:18.790Z,0.20
2022-12-03T05:54:20.988Z,0.20
2022-12-03T05:55:23.650Z,0.20
2022-12-03T05:56:25.865Z,0.20
2022-12-03T05:57:28.192Z,0.20
2022-12-03T05:58:30.467Z,0.20
2022-12-03T05:59:32.779Z,0.20
2022-12-03T06:00:42.822Z,0.20
2022-12-03T06:01:45.403Z,0.20
2022-12-03T06:02:47.896Z,0.20
2022-12-03T06:03:50.401Z,0.20
2022-12-03T06:04:53.466Z,0.20
2022-12-03T06:05:55.982Z,0.20
2022-12-03T06:06:58.186Z,0.20
2022-12-03T06:08:00.775Z,0.20
2022-12-03T06:09:04.101Z,0.20
2022-12-03T06:10:08.527Z,0.20
2022-12-03T06:11:10.761Z,0.20
2022-12-03T06:12:13.004Z,0.20
2022-12-03T06:13:15.222Z,0.20
2022-12-03T06:14:17.487Z,0.20
2022-12-03T06:15:20.471Z,0.20
2022-12-03T06:16:22.832Z,0.20
2022-12-03T06:17:25.501Z,0.20
2022-12-03T06:18:27.705Z,0.20
2022-12-03T06:19:29.947Z,0.20
2022-12-03T06:20:32.179Z,0.20
2022-12-03T06:21:34.542Z,0.20
2022-12-03T06:22:36.810Z,0.10
2022-12-03T06:23:44.686Z,0.20
2022-12-03T06:24:47.330Z,0.20
2022-12-03T06:25:49.524Z,0.10
2022-12-03T06:26:51.898Z,0.10
2022-12-03T06:27:54.207Z,0.10
2022-12-03T06:28:56.499Z,0.20
2022-12-03T06:29:58.707Z,0.20
2022-12-03T06:31:01.200Z,0.20
2022-12-03T06:32:04.610Z,0.20
2022-12-03T06:33:06.958Z,0.20
2022-12-03T06:34:09.291Z,0.20
2022-12-03T06:35:12.639Z,0.20
2022-12-03T06:36:17.801Z,0.20
2022-12-03T06:37:23.696Z,0.20
2022-12-03T06:38:26.035Z,0.20
2022-12-03T06:39:28.430Z,0.20
2022-12-03T06:40:30.752Z,0.20
2022-12-03T06:41:33.147Z,0.10
2022-12-03T06:42:35.399Z,0.10
2022-12-03T06:43:37.768Z,0.10
2022-12-03T06:44:39.956Z,0.10
2022-12-03T06:45:46.226Z,0.10
2022-12-03T06:46:50.210Z,0.10
2022-12-03T06:47:52.522Z,0.10
2022-12-03T06:48:54.755Z,0.10
2022-12-03T06:49:56.956Z,0.10
2022-12-03T06:50:59.217Z,0.10
2022-12-03T06:52:01.643Z,0.10
2022-12-03T06:53:03.839Z,0.10
2022-12-03T06:54:06.544Z,0.10
2022-12-03T06:55:09.361Z,0.10
2022-12-03T06:56:11.577Z,0.10
2022-12-03T06:57:13.879Z,0.10
2022-12-03T06:58:16.076Z,0.00
2022-12-03T06:59:18.407Z,0.00
2022-12-03T07:00:21.275Z,0.10
2022-12-03T07:01:23.785Z,0.10
2022-12-03T07:02:26.067Z,0.10
2022-12-03T07:03:28.297Z,0.10
2022-12-03T07:04:30.788Z,0.10
2022-12-03T07:05:32.988Z,0.00
2022-12-03T07:06:35.335Z,0.00
2022-12-03T07:07:37.629Z,0.00
2022-12-03T07:08:39.908Z,0.00
2022-12-03T07:09:42.215Z,0.00
2022-12-03T07:10:44.444Z,0.00
2022-12-03T07:11:46.640Z,0.00
2022-12-03T07:12:48.891Z,0.00
2022-12-03T07:13:51.111Z,0.00
2022-12-03T07:14:53.853Z,0.00
2022-12-03T07:15:56.351Z,0.00
2022-12-03T07:16:58.590Z,0.00
2022-12-03T07:18:00.799Z,0.00
2022-12-03T07:19:05.455Z,0.00
2022-12-03T07:20:08.339Z,0.00
2022-12-03T07:21:10.846Z,0.00
2022-12-03T07:22:13.204Z,0.00
2022-12-03T07:23:15.395Z,0.10
2022-12-03T07:24:17.610Z,0.10
2022-12-03T07:25:23.520Z,0.10
2022-12-03T07:26:26.435Z,0.10
2022-12-03T07:27:28.682Z,0.10
2022-12-03T07:28:30.913Z,0.10
2022-12-03T07:29:33.199Z,0.10
2022-12-03T07:30:35.495Z,0.10
2022-12-03T07:31:37.772Z,0.20
2022-12-03T07:32:40.187Z,0.10
2022-12-03T07:33:42.522Z,0.20
2022-12-03T07:34:44.724Z,0.20
2022-12-03T07:35:47.004Z,0.20
2022-12-03T07:36:49.414Z,0.20
2022-12-03T07:37:51.632Z,0.20
2022-12-03T07:38:53.872Z,0.20
2022-12-03T07:39:56.097Z,0.20
2022-12-03T07:40:58.438Z,0.20
2022-12-03T07:42:00.624Z,0.10
2022-12-03T07:43:02.883Z,0.10
2022-12-03T07:44:10.680Z,0.10
2022-12-03T07:45:16.766Z,0.10
2022-12-03T07:46:19.071Z,0.10
2022-12-03T07:47:21.361Z,0.10
2022-12-03T07:48:38.749Z,0.10
2022-12-03T07:49:41.005Z,0.10
2022-12-03T07:50:43.274Z,0.20
2022-12-03T07:51:54.102Z,0.20
2022-12-03T07:52:56.439Z,0.20
2022-12-03T07:53:58.703Z,0.20
2022-12-03T07:55:01.059Z,0.20
2022-12-03T07:56:04.221Z,0.20
2022-12-03T07:57:07.165Z,0.20
2022-12-03T07:58:09.498Z,0.20
2022-12-03T07:59:11.675Z,0.20
2022-12-03T08:00:14.970Z,0.20
2022-12-03T08:01:17.387Z,0.30
2022-12-03T08:02:21.699Z,0.30
2022-12-03T08:03:24.812Z,0.30
2022-12-03T08:04:27.045Z,0.30
2022-12-03T08:05:29.891Z,0.30
2022-12-03T08:06:32.163Z,0.30
2022-12-03T08:07:34.484Z,0.30
2022-12-03T08:08:36.736Z,0.30
2022-12-03T08:09:40.914Z,0.30
2022-12-03T08:10:43.152Z,0.30
2022-12-03T08:11:49.003Z,0.30
2022-12-03T08:12:51.524Z,0.40
2022-12-03T08:13:53.737Z,0.40
2022-12-03T08:14:56.876Z,0.40
2022-12-03T08:16:03.008Z,0.40
2022-12-03T08:17:11.533Z,0.40
2022-12-03T08:18:19.409Z,0.40
2022-12-03T08:19:22.552Z,0.40
2022-12-03T08:20:28.422Z,0.40
2022-12-03T08:21:36.016Z,0.40
2022-12-03T08:22:38.248Z,0.40
2022-12-03T08:23:40.840Z,0.30
2022-12-03T08:24:43.902Z,0.30
2022-12-03T08:25:46.647Z,0.30
2022-12-03T08:26:49.749Z,0.30
2022-12-03T08:27:55.391Z,0.30
2022-12-03T08:28:57.786Z,0.30
2022-12-03T08:30:04.426Z,0.30
2022-12-03T08:31:19.793Z,0.20
2022-12-03T08:32:22.154Z,0.20
2022-12-03T08:33:33.631Z,0.20
2022-12-03T08:34:42.450Z,0.20
2022-12-03T08:35:50.797Z,0.20
2022-12-03T08:37:02.076Z,0.20
2022-12-03T08:38:12.852Z,0.10
2022-12-03T08:39:33.590Z,0.20
2022-12-03T08:40:39.420Z,0.20
2022-12-03T08:42:00.908Z,0.20
2022-12-03T08:43:13.982Z,0.10
2022-12-03T08:44:32.651Z,0.10
2022-12-03T08:45:40.282Z,0.10
2022-12-03T08:46:42.721Z,0.20
2022-12-03T08:47:45.283Z,0.20
2022-12-03T08:48:49.353Z,0.20
2022-12-03T08:49:55.988Z,0.20
2022-12-03T08:51:09.262Z,0.30
2022-12-03T08:52:15.854Z,0.30
2022-12-03T08:53:37.592Z,0.30
2022-12-03T08:54:39.815Z,0.30
2022-12-03T08:55:52.844Z,0.30
2022-12-03T08:56:55.302Z,0.40
2022-12-03T08:57:58.524Z,0.40
2022-12-03T08:59:18.433Z,0.40
2022-12-03T09:00:24.840Z,0.40
2022-12-03T09:01:30.044Z,0.40
2022-12-03T09:02:34.464Z,0.50
2022-12-03T09:03:38.598Z,0.50
2022-12-03T09:04:47.203Z,0.50
2022-12-03T09:05:49.460Z,0.50
2022-12-03T09:06:52.675Z,0.60
2022-12-03T09:07:55.349Z,0.60
2022-12-03T09:09:00.132Z,0.60
2022-12-03T09:10:06.371Z,0.70
2022-12-03T09:11:08.611Z,0.70
2022-12-03T09:12:10.876Z,0.70
2022-12-03T09:13:13.208Z,0.70
2022-12-03T09:14:18.856Z,0.70
2022-12-03T09:15:21.378Z,0.70
2022-12-03T09:16:25.577Z,0.70
2022-12-03T09:17:27.944Z,0.70
2022-12-03T09:18:30.240Z,0.70
2022-12-03T09:19:38.071Z,0.70
2022-12-03T09:20:43.659Z,0.80
2022-12-03T09:21:45.957Z,0.80
2022-12-03T09:22:48.711Z,0.90
2022-12-03T09:23:50.910Z,0.90
2022-12-03T09:24:53.424Z,0.90
2022-12-03T09:25:55.847Z,0.90
2022-12-03T09:26:58.111Z,1.00
2022-12-03T09:28:00.360Z,1.00
2022-12-03T09:29:05.307Z,0.90
2022-12-03T09:30:11.696Z,0.90
2022-12-03T09:31:15.285Z,1.00
2022-12-03T09:32:18.801Z,1.00
2022-12-03T09:33:21.434Z,1.00
2022-12-03T09:34:23.683Z,1.00
2022-12-03T09:35:27.280Z,1.10
2022-12-03T09:36:29.971Z,1.00
2022-12-03T09:37:32.249Z,1.10
2022-12-03T09:38:34.988Z,1.10
2022-12-03T09:39:37.207Z,1.10
2022-12-03T09:40:39.527Z,1.10
2022-12-03T09:41:41.862Z,1.10
2022-12-03T09:42:44.628Z,1.10
2022-12-03T09:44:04.002Z,1.10
2022-12-03T09:45:10.921Z,1.10
2022-12-03T09:46:13.489Z,1.10
2022-12-03T09:47:15.766Z,1.10
2022-12-03T09:48:19.440Z,1.10
2022-12-03T09:49:22.035Z,1.10
2022-12-03T09:50:26.864Z,1.10
2022-12-03T09:51:33.754Z,1.10
2022-12-03T09:52:36.136Z,1.10
2022-12-03T09:53:41.303Z,1.10
2022-12-03T09:54:51.915Z,1.20
2022-12-03T09:55:54.631Z,1.20
2022-12-03T09:56:59.396Z,1.20
2022-12-03T09:58:02.132Z,1.20
2022-12-03T09:59:14.763Z,1.20
2022-12-03T10:00:19.979Z,1.20
2022-12-03T10:01:25.019Z,1.20
2022-12-03T10:02:31.326Z,1.30
2022-12-03T10:03:33.617Z,1.30
2022-12-03T10:04:35.843Z,1.30
2022-12-03T10:05:42.526Z,1.30
2022-12-03T10:06:48.165Z,1.30
2022-12-03T10:07:51.798Z,1.30
2022-12-03T10:08:55.617Z,1.40
2022-12-03T10:09:57.847Z,1.40
2022-12-03T10:11:00.223Z,1.40
2022-12-03T10:12:02.571Z,1.40
2022-12-03T10:13:05.424Z,1.40
2022-12-03T10:14:07.665Z,1.50
2022-12-03T10:15:14.127Z,1.50
2022-12-03T10:16:20.919Z,1.60
2022-12-03T10:17:23.471Z,1.60
2022-12-03T10:18:30.804Z,1.60
2022-12-03T10:19:35.785Z,1.70
2022-12-03T10:20:38.078Z,1.70
2022-12-03T10:21:40.271Z,1.80
2022-12-03T10:22:42.671Z,1.80
2022-12-03T10:23:48.453Z,1.80
2022-12-03T10:25:13.875Z,1.90
2022-12-03T10:26:16.873Z,1.90
2022-12-03T10:27:29.223Z,1.90
2022-12-03T10:28:37.654Z,1.80
2022-12-03T10:29:39.855Z,1.80
2022-12-03T10:30:54.838Z,1.80
2022-12-03T10:31:58.497Z,1.70
2022-12-03T10:33:17.368Z,1.60
2022-12-03T10:34:26.121Z,1.60
2022-12-03T10:35:41.289Z,1.50
2022-12-03T10:36:43.583Z,1.50
2022-12-03T10:38:03.339Z,1.50
2022-12-03T10:39:09.523Z,1.40
2022-12-03T10:40:12.335Z,1.30
2022-12-03T10:41:25.894Z,1.20
2022-12-03T10:42:33.489Z,1.20
2022-12-03T10:43:35.858Z,1.20
2022-12-03T10:44:38.056Z,1.20
2022-12-03T10:45:40.997Z,1.20
2022-12-03T10:46:44.134Z,1.20
2022-12-03T10:48:11.755Z,1.20
2022-12-03T10:49:19.099Z,1.20
2022-12-03T10:50:21.313Z,1.20
2022-12-03T10:51:23.568Z,1.30
2022-12-03T10:52:26.340Z,1.20
2022-12-03T10:53:31.577Z,1.30
2022-12-03T10:54:35.305Z,1.30
2022-12-03T10:55:40.783Z,1.30
2022-12-03T10:56:43.731Z,1.30
2022-12-03T10:57:47.166Z,1.30
2022-12-03T10:58:49.521Z,1.40
2022-12-03T10:59:52.798Z,1.30
2022-12-03T11:00:57.389Z,1.30
2022-12-03T11:01:59.982Z,1.30
2022-12-03T11:03:02.407Z,1.30
2022-12-03T11:04:05.357Z,1.30
2022-12-03T11:05:07.985Z,1.30
2022-12-03T11:06:18.655Z,1.30
2022-12-03T11:07:22.098Z,1.30
2022-12-03T11:08:34.661Z,1.30
2022-12-03T11:09:36.927Z,1.20
2022-12-03T11:10:39.174Z,1.20
2022-12-03T11:11:41.527Z,1.20
2022-12-03T11:13:22.412Z,1.20
2022-12-03T11:14:51.061Z,1.20
2022-12-03T11:15:54.450Z,1.20
2022-12-03T11:16:59.375Z,1.20
2022-12-03T11:18:01.624Z,1.20
2022-12-03T11:19:04.673Z,1.20
2022-12-03T11:20:24.944Z,1.20
2022-12-03T11:21:27.246Z,1.20
2022-12-03T11:22:48.716Z,1.20
2022-12-03T11:23:51.130Z,1.20
2022-12-03T11:25:31.538Z,1.20
2022-12-03T11:26:36.452Z,1.20
2022-12-03T11:27:38.660Z,1.20
2022-12-03T11:28:59.482Z,1.20
2022-12-03T11:30:02.224Z,1.20
2022-12-03T11:31:11.809Z,1.20
2022-12-03T11:32:38.772Z,1.30
2022-12-03T11:33:41.523Z,1.30
2022-12-03T11:34:44.186Z,1.30
2022-12-03T11:36:10.542Z,1.30
2022-12-03T11:37:12.728Z,1.30
2022-12-03T11:38:52.849Z,1.30
2022-12-03T11:40:03.533Z,1.30
2022-12-03T11:41:11.127Z,1.30
2022-12-03T11:42:27.912Z,1.30
2022-12-03T11:43:52.099Z,1.30
2022-12-03T11:45:06.134Z,1.30
2022-12-03T11:46:10.226Z,1.30
2022-12-03T11:47:16.882Z,1.30
2022-12-03T11:48:19.244Z,1.30
2022-12-03T11:49:51.057Z,1.30
2022-12-03T11:50:54.047Z,1.30
2022-12-03T11:51:58.104Z,1.30
2022-12-03T11:53:23.503Z,1.30
2022-12-03T11:54:26.330Z,1.30
2022-12-03T11:55:35.644Z,1.30
2022-12-03T11:56:45.830Z,1.30
2022-12-03T11:57:48.090Z,1.30
2022-12-03T11:58:58.864Z,1.40
2022-12-03T12:00:15.909Z,1.30
2022-12-03T12:01:38.291Z,1.30
2022-12-03T12:02:41.422Z,1.30
2022-12-03T12:03:48.378Z,1.30
2022-12-03T12:04:50.725Z,1.30
2022-12-03T12:06:09.302Z,1.30
2022-12-03T12:07:11.667Z,1.30
2022-12-03T12:08:19.213Z,1.30
2022-12-03T12:09:54.907Z,1.30
2022-12-03T12:10:58.239Z,1.30
2022-12-03T12:12:26.879Z,1.30
2022-12-03T12:13:32.100Z,1.30
2022-12-03T12:14:34.290Z,1.30
2022-12-03T12:15:39.626Z,1.30
2022-12-03T12:16:55.301Z,1.30
2022-12-03T12:17:57.677Z,1.20
2022-12-03T12:19:30.799Z,1.20
2022-12-03T12:20:33.023Z,1.20
2022-12-03T12:21:49.933Z,1.20
2022-12-03T12:22:55.011Z,1.20
2022-12-03T12:23:57.211Z,1.20
2022-12-03T12:25:01.758Z,1.20
2022-12-03T12:26:07.508Z,1.20
2022-12-03T12:27:10.798Z,1.20
2022-12-03T12:28:13.077Z,1.20
2022-12-03T12:29:15.311Z,1.20
2022-12-03T12:30:21.737Z,1.20
2022-12-03T12:31:24.027Z,1.20
2022-12-03T12:32:31.886Z,1.20
2022-12-03T12:33:35.419Z,1.20
2022-12-03T12:34:42.180Z,1.20
2022-12-03T12:35:44.470Z,1.20
2022-12-03T12:36:46.750Z,1.20
2022-12-03T12:38:10.869Z,1.20
2022-12-03T12:39:14.850Z,1.20
2022-12-03T12:40:18.913Z,1.30
2022-12-03T12:41:21.151Z,1.20
2022-12-03T12:42:35.125Z,1.20
2022-12-03T12:43:39.545Z,1.20
2022-12-03T12:44:41.883Z,1.20
2022-12-03T12:45:44.809Z,1.20
2022-12-03T12:46:48.644Z,1.20
2022-12-03T12:48:07.709Z,1.20
2022-12-03T12:49:14.998Z,1.20
2022-12-03T12:50:18.808Z,1.20
2022-12-03T12:51:21.139Z,1.20
2022-12-03T12:52:23.349Z,1.20
2022-12-03T12:53:33.860Z,1.20
2022-12-03T12:54:38.080Z,1.20
2022-12-03T12:55:40.956Z,1.20
2022-12-03T12:56:45.000Z,1.20
2022-12-03T12:57:47.403Z,1.20
2022-12-03T12:58:49.883Z,1.20
2022-12-03T12:59:53.766Z,1.20
2022-12-03T13:01:00.579Z,1.30
2022-12-03T13:02:08.594Z,1.30
2022-12-03T13:03:14.392Z,1.30
2022-12-03T13:04:22.672Z,1.20
2022-12-03T13:05:27.813Z,1.20
2022-12-03T13:06:31.924Z,1.20
2022-12-03T13:07:34.286Z,1.20
2022-12-03T13:08:48.691Z,1.10
2022-12-03T13:09:55.606Z,1.10
2022-12-03T13:11:00.257Z,1.10
2022-12-03T13:12:07.509Z,1.10
2022-12-03T13:13:23.165Z,1.00
2022-12-03T13:14:31.480Z,1.00
2022-12-03T13:15:49.398Z,1.00
2022-12-03T13:16:54.705Z,1.00
2022-12-03T13:17:57.687Z,1.10
2022-12-03T13:19:02.258Z,1.10
2022-12-03T13:20:17.148Z,1.10
2022-12-03T13:21:38.913Z,1.10
2022-12-03T13:22:41.309Z,1.10
2022-12-03T13:23:43.556Z,1.10
2022-12-03T13:24:47.909Z,1.00
2022-12-03T13:26:06.852Z,1.00
2022-12-03T13:27:20.464Z,1.00
2022-12-03T13:28:22.781Z,1.00
2022-12-03T13:29:27.083Z,0.90
2022-12-03T13:30:30.345Z,1.00
2022-12-03T13:31:39.335Z,0.90
2022-12-03T13:32:44.679Z,0.90
2022-12-03T13:33:47.028Z,0.90
2022-12-03T13:34:55.355Z,0.90
2022-12-03T13:35:57.677Z,0.90
2022-12-03T13:37:01.765Z,0.90
2022-12-03T13:38:15.274Z,0.90
2022-12-03T13:39:28.886Z,0.90
2022-12-03T13:40:35.235Z,0.90
2022-12-03T13:41:56.554Z,0.90
2022-12-03T13:42:59.910Z,0.90
2022-12-03T13:44:09.886Z,0.90
2022-12-03T13:45:15.060Z,0.80
2022-12-03T13:46:17.969Z,0.80
2022-12-03T13:47:23.695Z,0.80
2022-12-03T13:48:35.664Z,0.80
2022-12-03T13:49:38.045Z,0.80
2022-12-03T13:50:43.942Z,0.80
2022-12-03T13:51:47.269Z,0.80
2022-12-03T13:52:49.624Z,0.80
2022-12-03T13:53:52.316Z,0.90
2022-12-03T13:54:56.742Z,0.80
2022-12-03T13:56:23.447Z,0.80
2022-12-03T13:57:25.738Z,0.90
2022-12-03T13:58:27.923Z,0.90
2022-12-03T13:59:30.138Z,0.90
2022-12-03T14:00:32.430Z,0.90
2022-12-03T14:01:36.236Z,0.90
2022-12-03T14:02:39.011Z,0.90
2022-12-03T14:03:41.407Z,0.80
2022-12-03T14:04:43.605Z,0.80
2022-12-03T14:05:45.844Z,0.80
2022-12-03T14:06:48.117Z,0.80
2022-12-03T14:07:50.433Z,0.80
2022-12-03T14:08:52.791Z,0.80
2022-12-03T14:09:55.294Z,0.90
2022-12-03T14:11:00.537Z,0.90
2022-12-03T14:12:22.149Z,0.90
2022-12-03T14:13:24.705Z,0.90
2022-12-03T14:14:26.936Z,0.90
2022-12-03T14:15:29.502Z,0.90
2022-12-03T14:16:31.852Z,0.90
2022-12-03T14:17:34.239Z,0.90
2022-12-03T14:18:36.422Z,0.90
2022-12-03T14:19:38.680Z,0.90
2022-12-03T14:20:40.983Z,0.90
2022-12-03T14:21:43.402Z,0.90
2022-12-03T14:22:45.706Z,0.90
2022-12-03T14:23:47.937Z,0.90
2022-12-03T14:24:51.284Z,0.90
2022-12-03T14:25:53.615Z,0.90
2022-12-03T14:26:55.896Z,0.80
2022-12-03T14:27:58.215Z,0.90